sensor_id;sensor_type;location;lat;lon;timestamp;temperature;humidity
935;DHT22;454;53.254;10.400;2022-07-29T04:02:17;13.70;99.90
935;DHT22;454;53.254;10.400;2022-07-29T04:04:45;13.70;99.90
935;DHT22;454;53.254;10.400;2022-07-29T04:07:12;13.70;99.90
935;DHT22;454;53.254;10.400;2022-07-29T04:09:39;13.70;99.90
935;DHT22;454;53.254;10.400;2022-07-29T04:12:06;13.70;99.90
935;DHT22;454;53.254;10.400;2022-07-29T04:14:33;13.70;99.90
935;DHT22;454;53.254;10.400;2022-07-29T04:17:00;13.80;99.90
935;DHT22;454;53.254;10.400;2022-07-29T04:19:29;13.80;99.90
935;DHT22;454;53.254;10.400;2022-07-29T04:21:56;13.80;99.90
935;DHT22;454;53.254;10.400;2022-07-29T04:24:22;13.80;99.90
935;DHT22;454;53.254;10.400;2022-07-29T04:26:49;13.80;99.90
935;DHT22;454;53.254;10.400;2022-07-29T04:29:16;13.80;99.90
935;DHT22;454;53.254;10.400;2022-07-29T04:31:43;13.80;99.90
935;DHT22;454;53.254;10.400;2022-07-29T04:34:10;13.80;99.90
935;DHT22;454;53.254;10.400;2022-07-29T04:36:38;13.80;99.90
935;DHT22;454;53.254;10.400;2022-07-29T04:39:04;13.90;99.90
935;DHT22;454;53.254;10.400;2022-07-29T04:41:31;13.90;99.90
935;DHT22;454;53.254;10.400;2022-07-29T04:43:58;14.00;99.90
935;DHT22;454;53.254;10.400;2022-07-29T04:46:26;14.00;99.90
935;DHT22;454;53.254;10.400;2022-07-29T04:48:52;14.10;99.90
935;DHT22;454;53.254;10.400;2022-07-29T04:51:19;14.10;99.90
935;DHT22;454;53.254;10.400;2022-07-29T04:53:47;14.10;99.90
935;DHT22;454;53.254;10.400;2022-07-29T04:56:14;14.20;99.90
935;DHT22;454;53.254;10.400;2022-07-29T04:58:40;14.30;99.90
935;DHT22;454;53.254;10.400;2022-07-29T05:01:07;14.40;99.90
935;DHT22;454;53.254;10.400;2022-07-29T05:03:34;14.50;99.90
935;DHT22;454;53.254;10.400;2022-07-29T05:06:01;14.60;99.90
935;DHT22;454;53.254;10.400;2022-07-29T05:08:27;14.70;99.90
935;DHT22;454;53.254;10.400;2022-07-29T05:10:55;14.70;99.90
935;DHT22;454;53.254;10.400;2022-07-29T05:13:22;14.70;99.90
935;DHT22;454;53.254;10.400;2022-07-29T05:15:49;14.80;99.90
935;DHT22;454;53.254;10.400;2022-07-29T05:18:16;14.80;99.90
935;DHT22;454;53.254;10.400;2022-07-29T05:20:42;14.80;99.90
935;DHT22;454;53.254;10.400;2022-07-29T05:23:09;14.80;99.90
935;DHT22;454;53.254;10.400;2022-07-29T05:25:38;14.90;99.90
935;DHT22;454;53.254;10.400;2022-07-29T05:28:06;15.00;99.90
935;DHT22;454;53.254;10.400;2022-07-29T05:30:32;15.00;99.90
935;DHT22;454;53.254;10.400;2022-07-29T05:32:59;15.10;99.90
935;DHT22;454;53.254;10.400;2022-07-29T05:35:26;15.10;99.90
935;DHT22;454;53.254;10.400;2022-07-29T05:37:53;15.20;99.90
935;DHT22;454;53.254;10.400;2022-07-29T05:40:19;15.20;99.90
935;DHT22;454;53.254;10.400;2022-07-29T05:42:46;15.20;99.90
935;DHT22;454;53.254;10.400;2022-07-29T05:45:14;15.20;99.90
935;DHT22;454;53.254;10.400;2022-07-29T05:47:41;15.20;99.90
935;DHT22;454;53.254;10.400;2022-07-29T05:50:08;15.30;99.90
935;DHT22;454;53.254;10.400;2022-07-29T05:52:35;15.30;99.90
935;DHT22;454;53.254;10.400;2022-07-29T05:55:02;15.30;99.90
935;DHT22;454;53.254;10.400;2022-07-29T05:57:31;15.30;99.90
935;DHT22;454;53.254;10.400;2022-07-29T05:59:58;15.40;99.90
935;DHT22;454;53.254;10.400;2022-07-29T06:02:26;15.40;99.90
935;DHT22;454;53.254;10.400;2022-07-29T06:04:52;15.50;99.90
935;DHT22;454;53.254;10.400;2022-07-29T06:07:19;15.50;99.90
935;DHT22;454;53.254;10.400;2022-07-29T06:09:45;15.60;99.90
935;DHT22;454;53.254;10.400;2022-07-29T06:12:12;15.60;99.90
935;DHT22;454;53.254;10.400;2022-07-29T06:14:39;15.70;99.90
935;DHT22;454;53.254;10.400;2022-07-29T06:17:06;15.70;99.90
935;DHT22;454;53.254;10.400;2022-07-29T06:19:35;15.70;99.90
935;DHT22;454;53.254;10.400;2022-07-29T06:22:02;15.80;99.90
935;DHT22;454;53.254;10.400;2022-07-29T06:24:29;15.90;99.90
935;DHT22;454;53.254;10.400;2022-07-29T06:26:56;16.00;99.90
935;DHT22;454;53.254;10.400;2022-07-29T06:29:22;16.10;99.90
935;DHT22;454;53.254;10.400;2022-07-29T06:31:49;16.20;99.90
935;DHT22;454;53.254;10.400;2022-07-29T06:34:16;16.30;99.90
935;DHT22;454;53.254;10.400;2022-07-29T06:36:44;16.40;99.90
935;DHT22;454;53.254;10.400;2022-07-29T06:39:11;16.50;99.90
935;DHT22;454;53.254;10.400;2022-07-29T06:41:37;16.60;99.90
935;DHT22;454;53.254;10.400;2022-07-29T06:44:04;16.60;99.90
935;DHT22;454;53.254;10.400;2022-07-29T06:46:31;16.70;99.90
935;DHT22;454;53.254;10.400;2022-07-29T06:48:57;16.80;99.90
935;DHT22;454;53.254;10.400;2022-07-29T06:51:26;16.80;99.90
935;DHT22;454;53.254;10.400;2022-07-29T06:53:55;16.80;99.90
935;DHT22;454;53.254;10.400;2022-07-29T06:56:22;16.80;99.90
935;DHT22;454;53.254;10.400;2022-07-29T06:58:49;16.80;99.90
935;DHT22;454;53.254;10.400;2022-07-29T07:01:16;16.90;99.90
935;DHT22;454;53.254;10.400;2022-07-29T07:03:43;16.90;99.90
935;DHT22;454;53.254;10.400;2022-07-29T07:06:09;17.00;99.90
935;DHT22;454;53.254;10.400;2022-07-29T07:08:36;17.00;99.90
935;DHT22;454;53.254;10.400;2022-07-29T07:11:04;17.10;99.90
935;DHT22;454;53.254;10.400;2022-07-29T07:13:32;17.10;99.90
935;DHT22;454;53.254;10.400;2022-07-29T07:16:00;17.20;99.90
935;DHT22;454;53.254;10.400;2022-07-29T07:18:26;17.30;99.90
935;DHT22;454;53.254;10.400;2022-07-29T07:20:54;17.40;99.90
935;DHT22;454;53.254;10.400;2022-07-29T07:23:20;17.30;99.90
935;DHT22;454;53.254;10.400;2022-07-29T07:25:47;17.40;99.90
935;DHT22;454;53.254;10.400;2022-07-29T07:28:15;17.50;99.90
935;DHT22;454;53.254;10.400;2022-07-29T07:30:42;17.70;99.90
935;DHT22;454;53.254;10.400;2022-07-29T07:33:09;17.90;99.90
935;DHT22;454;53.254;10.400;2022-07-29T07:35:35;18.10;99.90
935;DHT22;454;53.254;10.400;2022-07-29T07:38:02;18.40;99.90
935;DHT22;454;53.254;10.400;2022-07-29T07:40:31;18.70;99.90
935;DHT22;454;53.254;10.400;2022-07-29T07:42:58;19.00;99.90
935;DHT22;454;53.254;10.400;2022-07-29T07:45:26;19.20;99.90
935;DHT22;454;53.254;10.400;2022-07-29T07:47:53;19.40;99.90
935;DHT22;454;53.254;10.400;2022-07-29T07:50:19;19.70;99.90
935;DHT22;454;53.254;10.400;2022-07-29T07:52:48;20.10;99.90
935;DHT22;454;53.254;10.400;2022-07-29T07:55:15;20.50;99.90
935;DHT22;454;53.254;10.400;2022-07-29T07:57:42;20.60;99.90
935;DHT22;454;53.254;10.400;2022-07-29T08:00:10;20.90;99.90
935;DHT22;454;53.254;10.400;2022-07-29T08:02:38;21.00;99.90
935;DHT22;454;53.254;10.400;2022-07-29T08:05:06;21.00;99.90
935;DHT22;454;53.254;10.400;2022-07-29T08:07:33;20.80;99.90
935;DHT22;454;53.254;10.400;2022-07-29T08:10:01;20.80;99.90
935;DHT22;454;53.254;10.400;2022-07-29T08:12:27;20.90;99.90
935;DHT22;454;53.254;10.400;2022-07-29T08:14:54;20.90;99.90
935;DHT22;454;53.254;10.400;2022-07-29T08:17:21;21.00;99.90
935;DHT22;454;53.254;10.400;2022-07-29T08:19:49;21.10;99.90
935;DHT22;454;53.254;10.400;2022-07-29T08:22:16;21.10;99.90
935;DHT22;454;53.254;10.400;2022-07-29T08:24:42;21.30;99.90
935;DHT22;454;53.254;10.400;2022-07-29T08:27:09;21.40;99.90
935;DHT22;454;53.254;10.400;2022-07-29T08:29:37;21.40;99.90
935;DHT22;454;53.254;10.400;2022-07-29T08:32:04;21.40;99.90
935;DHT22;454;53.254;10.400;2022-07-29T08:34:31;21.40;99.90
935;DHT22;454;53.254;10.400;2022-07-29T08:36:59;21.40;99.90
935;DHT22;454;53.254;10.400;2022-07-29T08:39:26;21.50;99.90
935;DHT22;454;53.254;10.400;2022-07-29T08:41:53;21.50;99.90
935;DHT22;454;53.254;10.400;2022-07-29T08:44:20;21.50;99.90
935;DHT22;454;53.254;10.400;2022-07-29T08:46:47;21.50;99.90
935;DHT22;454;53.254;10.400;2022-07-29T08:49:14;21.50;99.90
935;DHT22;454;53.254;10.400;2022-07-29T08:51:41;21.50;99.90
935;DHT22;454;53.254;10.400;2022-07-29T08:54:11;21.50;99.90
935;DHT22;454;53.254;10.400;2022-07-29T08:56:42;21.70;99.90
935;DHT22;454;53.254;10.400;2022-07-29T08:59:09;21.80;99.90
935;DHT22;454;53.254;10.400;2022-07-29T09:01:37;21.80;99.90
935;DHT22;454;53.254;10.400;2022-07-29T09:04:10;22.00;99.90
935;DHT22;454;53.254;10.400;2022-07-29T09:06:42;22.10;99.90
935;DHT22;454;53.254;10.400;2022-07-29T09:09:10;22.30;99.90
935;DHT22;454;53.254;10.400;2022-07-29T09:11:39;22.40;99.90
935;DHT22;454;53.254;10.400;2022-07-29T09:14:06;22.40;99.90
935;DHT22;454;53.254;10.400;2022-07-29T09:16:50;22.40;99.90
935;DHT22;454;53.254;10.400;2022-07-29T09:19:26;22.50;99.90
935;DHT22;454;53.254;10.400;2022-07-29T09:21:53;22.50;99.90
935;DHT22;454;53.254;10.400;2022-07-29T09:24:36;22.50;99.90
935;DHT22;454;53.254;10.400;2022-07-29T09:27:08;22.60;99.90
935;DHT22;454;53.254;10.400;2022-07-29T09:29:36;22.60;99.90
935;DHT22;454;53.254;10.400;2022-07-29T09:32:06;22.70;99.90
935;DHT22;454;53.254;10.400;2022-07-29T09:34:34;22.90;99.90
935;DHT22;454;53.254;10.400;2022-07-29T09:37:02;23.10;99.90
935;DHT22;454;53.254;10.400;2022-07-29T09:39:32;23.20;99.90
935;DHT22;454;53.254;10.400;2022-07-29T09:42:02;23.40;99.90
935;DHT22;454;53.254;10.400;2022-07-29T09:44:41;23.60;99.90
935;DHT22;454;53.254;10.400;2022-07-29T09:47:08;23.70;99.90
935;DHT22;454;53.254;10.400;2022-07-29T09:49:36;23.80;99.90
935;DHT22;454;53.254;10.400;2022-07-29T09:52:16;23.90;99.90
935;DHT22;454;53.254;10.400;2022-07-29T09:54:44;24.00;99.90
935;DHT22;454;53.254;10.400;2022-07-29T09:57:24;24.10;99.90
935;DHT22;454;53.254;10.400;2022-07-29T09:59:56;24.10;99.90
935;DHT22;454;53.254;10.400;2022-07-29T10:02:28;24.00;99.90
935;DHT22;454;53.254;10.400;2022-07-29T10:04:55;24.10;99.90
935;DHT22;454;53.254;10.400;2022-07-29T10:07:22;24.20;99.90
935;DHT22;454;53.254;10.400;2022-07-29T10:09:57;24.20;99.90
935;DHT22;454;53.254;10.400;2022-07-29T10:12:24;24.30;99.90
935;DHT22;454;53.254;10.400;2022-07-29T10:14:50;24.40;99.90
935;DHT22;454;53.254;10.400;2022-07-29T10:17:18;24.40;99.90
935;DHT22;454;53.254;10.400;2022-07-29T10:19:45;24.50;99.90
935;DHT22;454;53.254;10.400;2022-07-29T10:22:12;24.60;99.90
935;DHT22;454;53.254;10.400;2022-07-29T10:24:39;24.70;99.90
935;DHT22;454;53.254;10.400;2022-07-29T10:27:08;24.80;99.90
935;DHT22;454;53.254;10.400;2022-07-29T10:29:35;24.90;99.90
935;DHT22;454;53.254;10.400;2022-07-29T10:32:32;25.00;99.20
935;DHT22;454;53.254;10.400;2022-07-29T10:35:32;25.10;99.40
935;DHT22;454;53.254;10.400;2022-07-29T10:38:17;25.20;98.80
935;DHT22;454;53.254;10.400;2022-07-29T10:40:54;25.20;97.90
935;DHT22;454;53.254;10.400;2022-07-29T10:43:45;25.20;97.90
935;DHT22;454;53.254;10.400;2022-07-29T10:46:13;25.10;97.60
935;DHT22;454;53.254;10.400;2022-07-29T10:49:08;25.10;96.60
935;DHT22;454;53.254;10.400;2022-07-29T10:52:01;25.10;96.30
935;DHT22;454;53.254;10.400;2022-07-29T10:54:39;25.10;96.10
935;DHT22;454;53.254;10.400;2022-07-29T10:57:16;25.10;95.50
935;DHT22;454;53.254;10.400;2022-07-29T10:59:47;25.00;95.60
935;DHT22;454;53.254;10.400;2022-07-29T11:02:42;25.10;94.50
935;DHT22;454;53.254;10.400;2022-07-29T11:05:11;25.20;94.30
935;DHT22;454;53.254;10.400;2022-07-29T11:07:39;25.30;93.80
935;DHT22;454;53.254;10.400;2022-07-29T11:10:23;25.30;93.40
935;DHT22;454;53.254;10.400;2022-07-29T11:12:50;25.40;93.80
935;DHT22;454;53.254;10.400;2022-07-29T11:15:20;25.40;92.90
935;DHT22;454;53.254;10.400;2022-07-29T11:18:07;25.30;92.70
935;DHT22;454;53.254;10.400;2022-07-29T11:20:36;25.30;92.50
935;DHT22;454;53.254;10.400;2022-07-29T11:23:18;25.30;92.20
935;DHT22;454;53.254;10.400;2022-07-29T11:25:46;25.40;92.50
935;DHT22;454;53.254;10.400;2022-07-29T11:28:34;25.30;91.90
935;DHT22;454;53.254;10.400;2022-07-29T11:31:03;25.30;92.00
935;DHT22;454;53.254;10.400;2022-07-29T11:33:32;25.40;91.00
935;DHT22;454;53.254;10.400;2022-07-29T11:36:09;25.50;91.10
935;DHT22;454;53.254;10.400;2022-07-29T11:38:37;25.50;91.00
935;DHT22;454;53.254;10.400;2022-07-29T11:41:22;25.60;90.80
935;DHT22;454;53.254;10.400;2022-07-29T11:43:51;25.70;90.60
935;DHT22;454;53.254;10.400;2022-07-29T11:46:43;25.70;90.80
935;DHT22;454;53.254;10.400;2022-07-29T11:49:11;25.60;90.40
935;DHT22;454;53.254;10.400;2022-07-29T11:51:39;25.80;91.40
935;DHT22;454;53.254;10.400;2022-07-29T11:54:09;25.70;90.30
935;DHT22;454;53.254;10.400;2022-07-29T11:56:39;25.70;90.30
935;DHT22;454;53.254;10.400;2022-07-29T11:59:09;25.80;90.80
935;DHT22;454;53.254;10.400;2022-07-29T12:01:51;26.00;90.70
935;DHT22;454;53.254;10.400;2022-07-29T12:04:18;26.00;90.10
935;DHT22;454;53.254;10.400;2022-07-29T12:06:49;26.20;90.00
935;DHT22;454;53.254;10.400;2022-07-29T12:09:16;26.30;89.80
935;DHT22;454;53.254;10.400;2022-07-29T12:11:44;26.30;89.70
935;DHT22;454;53.254;10.400;2022-07-29T12:14:24;26.40;88.50
935;DHT22;454;53.254;10.400;2022-07-29T12:16:52;26.40;88.80
935;DHT22;454;53.254;10.400;2022-07-29T12:19:19;26.50;87.80
935;DHT22;454;53.254;10.400;2022-07-29T12:21:47;26.60;87.70
935;DHT22;454;53.254;10.400;2022-07-29T12:24:15;26.50;87.00
935;DHT22;454;53.254;10.400;2022-07-29T12:26:49;26.60;87.00
935;DHT22;454;53.254;10.400;2022-07-29T12:29:16;26.70;87.50
935;DHT22;454;53.254;10.400;2022-07-29T12:31:43;26.80;86.60
935;DHT22;454;53.254;10.400;2022-07-29T12:34:15;26.90;85.90
935;DHT22;454;53.254;10.400;2022-07-29T12:36:45;26.90;85.50
935;DHT22;454;53.254;10.400;2022-07-29T12:39:12;26.90;85.10
935;DHT22;454;53.254;10.400;2022-07-29T12:41:39;27.00;85.40
935;DHT22;454;53.254;10.400;2022-07-29T12:44:06;27.10;83.90
935;DHT22;454;53.254;10.400;2022-07-29T12:46:32;27.00;83.80
935;DHT22;454;53.254;10.400;2022-07-29T12:48:59;27.10;84.50
935;DHT22;454;53.254;10.400;2022-07-29T12:51:32;27.20;84.30
935;DHT22;454;53.254;10.400;2022-07-29T12:54:04;27.40;84.80
935;DHT22;454;53.254;10.400;2022-07-29T12:56:31;27.40;83.10
935;DHT22;454;53.254;10.400;2022-07-29T12:58:58;27.40;83.70
935;DHT22;454;53.254;10.400;2022-07-29T13:01:24;27.40;83.00
935;DHT22;454;53.254;10.400;2022-07-29T13:03:54;27.50;83.00
935;DHT22;454;53.254;10.400;2022-07-29T13:06:31;27.50;82.50
935;DHT22;454;53.254;10.400;2022-07-29T13:09:09;27.60;82.70
935;DHT22;454;53.254;10.400;2022-07-29T13:11:38;27.60;82.30
935;DHT22;454;53.254;10.400;2022-07-29T13:14:06;27.60;82.00
935;DHT22;454;53.254;10.400;2022-07-29T13:16:34;27.50;81.40
935;DHT22;454;53.254;10.400;2022-07-29T13:19:05;27.60;82.40
935;DHT22;454;53.254;10.400;2022-07-29T13:21:35;27.60;81.80
935;DHT22;454;53.254;10.400;2022-07-29T13:24:02;27.70;81.60
935;DHT22;454;53.254;10.400;2022-07-29T13:26:29;27.50;80.50
935;DHT22;454;53.254;10.400;2022-07-29T13:28:56;27.50;81.60
935;DHT22;454;53.254;10.400;2022-07-29T13:31:22;27.50;80.30
935;DHT22;454;53.254;10.400;2022-07-29T13:33:49;27.60;79.60
935;DHT22;454;53.254;10.400;2022-07-29T13:36:16;27.60;78.90
935;DHT22;454;53.254;10.400;2022-07-29T13:38:44;27.60;76.80
935;DHT22;454;53.254;10.400;2022-07-29T13:41:11;27.60;76.90
935;DHT22;454;53.254;10.400;2022-07-29T13:43:37;27.60;76.80
935;DHT22;454;53.254;10.400;2022-07-29T13:46:04;27.60;76.70
935;DHT22;454;53.254;10.400;2022-07-29T13:48:31;27.50;76.40
935;DHT22;454;53.254;10.400;2022-07-29T13:50:57;27.50;76.30
935;DHT22;454;53.254;10.400;2022-07-29T13:53:24;27.50;76.70
935;DHT22;454;53.254;10.400;2022-07-29T13:55:52;27.50;76.60
935;DHT22;454;53.254;10.400;2022-07-29T13:58:19;27.40;75.70
935;DHT22;454;53.254;10.400;2022-07-29T14:00:46;27.40;75.70
935;DHT22;454;53.254;10.400;2022-07-29T14:03:12;27.40;75.60
935;DHT22;454;53.254;10.400;2022-07-29T14:05:39;27.40;75.70
935;DHT22;454;53.254;10.400;2022-07-29T14:08:06;27.40;75.30
935;DHT22;454;53.254;10.400;2022-07-29T14:10:32;27.40;75.70
935;DHT22;454;53.254;10.400;2022-07-29T14:13:01;27.40;74.80
935;DHT22;454;53.254;10.400;2022-07-29T14:15:27;27.40;74.40
935;DHT22;454;53.254;10.400;2022-07-29T14:17:54;27.30;73.80
935;DHT22;454;53.254;10.400;2022-07-29T14:20:21;27.10;74.20
935;DHT22;454;53.254;10.400;2022-07-29T14:22:48;27.00;75.20
935;DHT22;454;53.254;10.400;2022-07-29T14:25:14;27.00;74.50
935;DHT22;454;53.254;10.400;2022-07-29T14:27:41;27.10;74.80
935;DHT22;454;53.254;10.400;2022-07-29T14:30:10;27.10;74.00
935;DHT22;454;53.254;10.400;2022-07-29T14:32:37;27.10;74.20
935;DHT22;454;53.254;10.400;2022-07-29T14:35:05;27.20;75.50
935;DHT22;454;53.254;10.400;2022-07-29T14:37:32;27.30;74.90
935;DHT22;454;53.254;10.400;2022-07-29T14:39:59;27.40;74.20
935;DHT22;454;53.254;10.400;2022-07-29T14:42:29;27.60;74.80
935;DHT22;454;53.254;10.400;2022-07-29T14:44:56;27.70;72.60
935;DHT22;454;53.254;10.400;2022-07-29T14:47:24;27.70;73.50
935;DHT22;454;53.254;10.400;2022-07-29T14:49:51;27.80;71.90
935;DHT22;454;53.254;10.400;2022-07-29T14:52:18;27.80;70.60
935;DHT22;454;53.254;10.400;2022-07-29T14:54:44;27.90;71.60
935;DHT22;454;53.254;10.400;2022-07-29T14:57:11;28.00;71.00
935;DHT22;454;53.254;10.400;2022-07-29T14:59:37;27.90;69.90
935;DHT22;454;53.254;10.400;2022-07-29T15:02:04;27.80;69.90
935;DHT22;454;53.254;10.400;2022-07-29T15:04:32;27.70;69.20
935;DHT22;454;53.254;10.400;2022-07-29T15:06:59;27.60;70.10
935;DHT22;454;53.254;10.400;2022-07-29T15:09:26;27.60;69.60
935;DHT22;454;53.254;10.400;2022-07-29T15:11:53;27.70;70.20
935;DHT22;454;53.254;10.400;2022-07-29T15:14:20;27.90;68.70
935;DHT22;454;53.254;10.400;2022-07-29T15:16:46;27.70;67.30
935;DHT22;454;53.254;10.400;2022-07-29T15:19:13;27.70;69.20
935;DHT22;454;53.254;10.400;2022-07-29T15:21:41;27.60;68.60
935;DHT22;454;53.254;10.400;2022-07-29T15:24:08;27.60;68.50
935;DHT22;454;53.254;10.400;2022-07-29T15:26:35;27.50;69.30
935;DHT22;454;53.254;10.400;2022-07-29T15:29:01;27.40;70.20
935;DHT22;454;53.254;10.400;2022-07-29T15:31:28;27.30;70.30
935;DHT22;454;53.254;10.400;2022-07-29T15:33:55;27.20;70.20
935;DHT22;454;53.254;10.400;2022-07-29T15:36:22;27.10;70.50
935;DHT22;454;53.254;10.400;2022-07-29T15:38:51;27.00;70.20
935;DHT22;454;53.254;10.400;2022-07-29T15:41:19;26.90;70.70
935;DHT22;454;53.254;10.400;2022-07-29T15:43:46;27.10;71.30
935;DHT22;454;53.254;10.400;2022-07-29T15:46:14;27.20;71.20
935;DHT22;454;53.254;10.400;2022-07-29T15:48:58;27.40;71.50
935;DHT22;454;53.254;10.400;2022-07-29T15:51:25;27.50;71.50
935;DHT22;454;53.254;10.400;2022-07-29T15:53:53;27.60;69.30
935;DHT22;454;53.254;10.400;2022-07-29T15:56:21;27.60;70.00
935;DHT22;454;53.254;10.400;2022-07-29T15:58:48;27.60;69.30
935;DHT22;454;53.254;10.400;2022-07-29T16:01:14;27.70;68.90
935;DHT22;454;53.254;10.400;2022-07-29T16:03:41;27.60;76.30
935;DHT22;454;53.254;10.400;2022-07-29T16:06:08;27.50;82.20
935;DHT22;454;53.254;10.400;2022-07-29T16:08:35;27.30;85.80
935;DHT22;454;53.254;10.400;2022-07-29T16:11:03;27.10;85.50
935;DHT22;454;53.254;10.400;2022-07-29T16:13:30;26.90;88.50
935;DHT22;454;53.254;10.400;2022-07-29T16:15:57;26.90;90.60
935;DHT22;454;53.254;10.400;2022-07-29T16:18:23;26.70;90.50
935;DHT22;454;53.254;10.400;2022-07-29T16:20:50;26.70;90.90
935;DHT22;454;53.254;10.400;2022-07-29T16:23:17;26.60;90.90
935;DHT22;454;53.254;10.400;2022-07-29T16:25:44;26.60;90.90
935;DHT22;454;53.254;10.400;2022-07-29T16:28:12;26.50;91.00
935;DHT22;454;53.254;10.400;2022-07-29T16:30:38;26.50;91.60
935;DHT22;454;53.254;10.400;2022-07-29T16:33:05;26.50;92.20
935;DHT22;454;53.254;10.400;2022-07-29T16:35:32;26.50;93.10
935;DHT22;454;53.254;10.400;2022-07-29T16:38:01;26.60;93.40
935;DHT22;454;53.254;10.400;2022-07-29T16:40:28;26.50;94.00
935;DHT22;454;53.254;10.400;2022-07-29T16:42:55;26.60;94.30
935;DHT22;454;53.254;10.400;2022-07-29T16:45:23;26.40;94.50
935;DHT22;454;53.254;10.400;2022-07-29T16:47:50;26.40;94.80
935;DHT22;454;53.254;10.400;2022-07-29T16:50:16;26.30;95.00
935;DHT22;454;53.254;10.400;2022-07-29T16:52:43;26.30;95.10
935;DHT22;454;53.254;10.400;2022-07-29T16:55:10;26.40;95.00
935;DHT22;454;53.254;10.400;2022-07-29T16:57:36;26.30;94.50
935;DHT22;454;53.254;10.400;2022-07-29T17:00:04;26.30;94.50
935;DHT22;454;53.254;10.400;2022-07-29T17:02:33;26.20;94.10
935;DHT22;454;53.254;10.400;2022-07-29T17:04:59;26.10;94.50
935;DHT22;454;53.254;10.400;2022-07-29T17:07:26;26.00;94.60
935;DHT22;454;53.254;10.400;2022-07-29T17:09:53;25.80;94.90
935;DHT22;454;53.254;10.400;2022-07-29T17:12:21;25.70;95.30
935;DHT22;454;53.254;10.400;2022-07-29T17:14:47;25.60;95.90
935;DHT22;454;53.254;10.400;2022-07-29T17:17:14;25.30;96.60
935;DHT22;454;53.254;10.400;2022-07-29T17:19:42;25.20;97.50
935;DHT22;454;53.254;10.400;2022-07-29T17:22:09;25.00;98.30
935;DHT22;454;53.254;10.400;2022-07-29T17:24:36;24.80;99.00
935;DHT22;454;53.254;10.400;2022-07-29T17:27:03;24.70;99.80
935;DHT22;454;53.254;10.400;2022-07-29T17:29:30;24.60;99.90
935;DHT22;454;53.254;10.400;2022-07-29T17:31:57;24.50;99.90
935;DHT22;454;53.254;10.400;2022-07-29T17:34:24;24.50;99.90
935;DHT22;454;53.254;10.400;2022-07-29T17:36:52;24.40;99.90
935;DHT22;454;53.254;10.400;2022-07-29T17:39:19;24.30;99.90
935;DHT22;454;53.254;10.400;2022-07-29T17:41:46;24.20;99.90
935;DHT22;454;53.254;10.400;2022-07-29T17:44:12;24.20;99.90
935;DHT22;454;53.254;10.400;2022-07-29T17:46:39;24.20;99.90
935;DHT22;454;53.254;10.400;2022-07-29T17:49:06;24.10;99.90
935;DHT22;454;53.254;10.400;2022-07-29T17:51:33;24.10;99.90
935;DHT22;454;53.254;10.400;2022-07-29T17:54:01;24.00;99.90
935;DHT22;454;53.254;10.400;2022-07-29T17:56:28;23.90;99.90
935;DHT22;454;53.254;10.400;2022-07-29T17:58:55;23.80;99.90
935;DHT22;454;53.254;10.400;2022-07-29T18:01:25;23.70;99.90
935;DHT22;454;53.254;10.400;2022-07-29T18:03:52;23.60;99.90
935;DHT22;454;53.254;10.400;2022-07-29T18:06:18;23.60;99.90
935;DHT22;454;53.254;10.400;2022-07-29T18:08:45;23.50;99.90
935;DHT22;454;53.254;10.400;2022-07-29T18:11:14;23.40;99.90
935;DHT22;454;53.254;10.400;2022-07-29T18:13:40;23.40;99.90
935;DHT22;454;53.254;10.400;2022-07-29T18:16:08;23.40;99.90
935;DHT22;454;53.254;10.400;2022-07-29T18:18:35;23.30;99.90
935;DHT22;454;53.254;10.400;2022-07-29T18:21:03;23.20;99.90
935;DHT22;454;53.254;10.400;2022-07-29T18:23:29;23.20;99.90
935;DHT22;454;53.254;10.400;2022-07-29T18:25:56;23.20;99.90
935;DHT22;454;53.254;10.400;2022-07-29T18:28:24;23.10;99.90
935;DHT22;454;53.254;10.400;2022-07-29T18:30:51;23.10;99.90
935;DHT22;454;53.254;10.400;2022-07-29T18:33:18;23.00;99.90
935;DHT22;454;53.254;10.400;2022-07-29T18:35:45;22.90;99.90
935;DHT22;454;53.254;10.400;2022-07-29T18:38:12;22.90;99.90
935;DHT22;454;53.254;10.400;2022-07-29T18:40:39;22.70;99.90
935;DHT22;454;53.254;10.400;2022-07-29T18:43:06;22.40;99.90
935;DHT22;454;53.254;10.400;2022-07-29T18:45:34;22.20;99.90
935;DHT22;454;53.254;10.400;2022-07-29T18:48:01;22.10;99.90
935;DHT22;454;53.254;10.400;2022-07-29T18:50:28;22.00;99.90
935;DHT22;454;53.254;10.400;2022-07-29T18:52:55;21.90;99.90
935;DHT22;454;53.254;10.400;2022-07-29T18:55:23;21.80;99.90
935;DHT22;454;53.254;10.400;2022-07-29T18:57:50;21.80;99.90
935;DHT22;454;53.254;10.400;2022-07-29T19:00:17;21.70;99.90
935;DHT22;454;53.254;10.400;2022-07-29T19:02:45;21.70;99.90
935;DHT22;454;53.254;10.400;2022-07-29T19:05:12;21.60;99.90
935;DHT22;454;53.254;10.400;2022-07-29T19:07:38;21.60;99.90
935;DHT22;454;53.254;10.400;2022-07-29T19:10:06;21.60;99.90
935;DHT22;454;53.254;10.400;2022-07-29T19:12:33;21.50;99.90
935;DHT22;454;53.254;10.400;2022-07-29T19:14:59;21.50;99.90
935;DHT22;454;53.254;10.400;2022-07-29T19:17:26;21.40;99.90
935;DHT22;454;53.254;10.400;2022-07-29T19:19:54;21.40;99.90
935;DHT22;454;53.254;10.400;2022-07-29T19:22:22;21.30;99.90
935;DHT22;454;53.254;10.400;2022-07-29T19:24:49;21.30;99.90
935;DHT22;454;53.254;10.400;2022-07-29T19:27:15;21.20;99.90
935;DHT22;454;53.254;10.400;2022-07-29T19:29:42;21.20;99.90
935;DHT22;454;53.254;10.400;2022-07-29T19:32:10;21.20;99.90
935;DHT22;454;53.254;10.400;2022-07-29T19:34:37;21.10;99.90
935;DHT22;454;53.254;10.400;2022-07-29T19:37:05;21.10;99.90
935;DHT22;454;53.254;10.400;2022-07-29T19:39:32;21.10;99.90
935;DHT22;454;53.254;10.400;2022-07-29T19:41:59;21.00;99.90
935;DHT22;454;53.254;10.400;2022-07-29T19:44:26;20.90;99.90
935;DHT22;454;53.254;10.400;2022-07-29T19:46:53;20.90;99.90
935;DHT22;454;53.254;10.400;2022-07-29T19:49:19;20.90;99.90
935;DHT22;454;53.254;10.400;2022-07-29T19:51:46;20.80;99.90
935;DHT22;454;53.254;10.400;2022-07-29T19:54:14;20.80;99.90
935;DHT22;454;53.254;10.400;2022-07-29T19:56:42;20.70;99.90
935;DHT22;454;53.254;10.400;2022-07-29T19:59:10;20.70;99.90
935;DHT22;454;53.254;10.400;2022-07-29T20:01:36;20.60;99.90
935;DHT22;454;53.254;10.400;2022-07-29T20:04:03;20.50;99.90
935;DHT22;454;53.254;10.400;2022-07-29T20:06:30;20.50;99.90
935;DHT22;454;53.254;10.400;2022-07-29T20:08:57;20.50;99.90
935;DHT22;454;53.254;10.400;2022-07-29T20:11:25;20.40;99.90
935;DHT22;454;53.254;10.400;2022-07-29T20:13:54;20.40;99.90
935;DHT22;454;53.254;10.400;2022-07-29T20:16:20;20.30;99.90
935;DHT22;454;53.254;10.400;2022-07-29T20:18:47;20.30;99.90
935;DHT22;454;53.254;10.400;2022-07-29T20:21:14;20.30;99.90
935;DHT22;454;53.254;10.400;2022-07-29T20:23:40;20.20;99.90
935;DHT22;454;53.254;10.400;2022-07-29T20:26:07;20.20;99.90